Anglo Rustico, Prince Edward Island

9:07 PM ADT on July 22, 2017 (GMT -0300)
Rusticoville | | Change Station

Elev 62 ft 46.45 °N, 63.31 °W | Updated 1 minute ago

Clear
Clear
61.5 °F
Feels Like 61.5 °F
N
3.0
Wind Variable Wind from WSW

Today
High -- | Low -- °F
--% Chance of Precip.
Yesterday
High -- | Low -- °F
Precip. -- in
Pressure 29.71 in
Visibility 15.0 miles
Clouds Few 5000 ft
Few 25000 ft
Dew Point 52 °F
Humidity 71%
Rainfall 0.66 in
Snow Depth Not available.
5:42 AM 8:55 PM
Waning Crescent, 0% visible
METAR CYYG 222300Z 01004KT 350V050 15SM FEW050 FEW250 18/10 A2970 RMK CU1CI1 CU TR SLP061 DENSITY ALT 900FT
Pressure 29.71 in
Visibility 15.0 miles
Clouds Few 5000 ft
Few 25000 ft
Dew Point 52 °F
Humidity 71%
Rainfall 0.66 in
Snow Depth Not available.
5:42 AM 8:55 PM
Waning Crescent, 0% visible
METAR CYYG 222300Z 01004KT 350V050 15SM FEW050 FEW250 18/10 A2970 RMK CU1CI1 CU TR SLP061 DENSITY ALT 900FT

Get Severe Weather Alerts

Thanks for signing up!

Be on the lookout for a verification email in your inbox.

You'll start receiving the daily forecast at 6 AM.

×

10-Day Weather Forecast

Almanac

Astronomy

Jul. 22, 2017 Rise Set
Actual Time
Civil Twilight
Nautical Twilight
Astronomical Twilight
Moon
Length of Visible Light
Length of Day
Tomorrow will be .
, % of the Moon is Illuminated

Today's Extremes

Country Highs Country Lows

Community

WunderPhotos

Category 6

Welcome to Category 6. This is the collective home for Weather Underground's featured writeups by Dr. Jeff Masters (right), Bob Henson (left), Chris Burt, and other regular contributors.

Nearby

Air Quality

  Air Quality AQ Index Pollutant
Not available.

Snow Depth

Station Depth Elevation

Earthquake Activity

City Distance Mag. Time & Date
Minimum magnitude displayed is 2.5.

Coastal Water Temperatures

Place Temperature

Stations

Nearby Weather Stations

Station Location Temp. Windchill Dew Point Humidity Wind Precip. Elev Updated Type
                   

Watches & Warnings

There are currently no watches in effect.